KEKQ

Wayne County Airport

Monticello, Kentucky, USA
METAR KEKQ 180256Z AUTO 04008KT 3SM BR OVC007 06/05 A3018 RMK AO2 SLP247 T00560050 51005 TSNO
Observed Flight Rules
Dec-18 @ 02:56 UTC (5 minutes ago) Instrument Flight Rules
Wind Visibility Clouds Conditions
40° at 8 knots 3 miles
  • Overcast at 700' AGL
  • Mist
Temperatures Readings
Current 6°C / 43°F
Dewpoint 5°C / 41°F
Humidity 93%
Altimeter 30.18" Hg
Pressure 1024.7 hPa
Elevation 294
METAR KEKQ 180256Z AUTO 04008KT 3SM BR OVC007 06/05 A3018 RMK AO2 SLP247 T00560050 51005 TSNO
Observed Flight Rules
Dec-18 @ 02:56 UTC
(5 minutes ago)
IFR
Wind Visibility
40° at 8 knots 3 miles
Clouds
  • Overcast at 700' AGL
Conditions
  • Mist
Temperature Dewpoint
6°C / 43°F 5°C / 41°F
Humidity Altimeter Pressure
93% 30.18" Hg 1024.7 hPa